Ana Sayfa
METAR-TAF:

METAR-TAF

Havaalanları :

Hillsdale Municipal Airport

Hillsdale, Michigan, Amerika Birleşik Devletleri

Enlem: 41-55-17N, Boylam: 084-35-09W, yükseklik: 360 m

Güncel hava durumu gözlemi

Rapor saat 22:56 UTC de 26 dakika önce yapıldı.
Rüzgar güneydan 7 kt
Sıcaklık 28°C
Nem 70%
Basınç 1010 hPa
Görüş mesafesi: 16.1 km
Açık gökyüzü

METAR: KJYM 182256Z AUTO 17007KT 10SM CLR 28/22 A2983 RMK AO2 T02750217

Saat: 19:22 (23:22 UTC)


TAF: eksik

4.000'den fazla havaalanı için hava durumu gözlemleri ve tahminleri (METAR ve TAF raporları).

Kullanılabilir istasyonlar harita üzerinde sarı ve kırmızı noktalarla gösterilir.

İstasyonun adını görmek için fareyi noktanın üzerinde gezdirin.

Sonrasında hava gözlem ve tahminlerini görmek için tıklayın.

Haritayı değiştirmek için: yaklaştırmak için siyah artı işaretli yeşil düğmeye ve uzaklaştırmak için de eksi işaretli düğmeye hızla tıklayın; bitişik haritalar için yeşil okları kullanın.


METAR-TAF: